Time;durP1;ratioP1;P1;durP2;ratioP2;P2;SDS_P1;SDS_P2;PMS_P1;PMS_P2;Temp;Humidity;BMP_temperature;BMP_pressure;BME280_temperature;BME280_humidity;BME280_pressure;Samples;Min_cycle;Max_cycle;Signal;HPM_P1;HPM_P2
2022/05/24 00:00:01;;;;;;;14.52;8.57;;;;;;;;;;4740005;30;20411;-82
2022/05/24 00:02:27;;;;;;;12.45;7.55;;;;;;;;;;4739916;30;20040;-85
2022/05/24 00:04:53;;;;;;;16.30;9.27;;;;;;;;;;4738101;30;20107;-86
2022/05/24 00:07:19;;;;;;;10.20;8.30;;;;;;;;;;4739820;30;20090;-81
2022/05/24 00:09:45;;;;;;;13.90;8.55;;;;;;;;;;4757140;30;20040;-86
2022/05/24 00:12:11;;;;;;;11.25;7.65;;;;;;;;;;4740512;30;20081;-86
2022/05/24 00:17:23;;;;;;;10.23;8.00;;;;;;;;;;4741481;30;20052;-80
2022/05/24 00:19:49;;;;;;;10.88;7.95;;;;;;;;;;4741121;30;20080;-84
2022/05/24 00:22:15;;;;;;;11.35;7.13;;;;;;;;;;4741197;30;20063;-88
2022/05/24 00:24:41;;;;;;;13.13;6.85;;;;;;;;;;4739839;30;20059;-84
2022/05/24 00:27:07;;;;;;;11.02;7.45;;;;;;;;;;4740806;30;20068;-85
2022/05/24 00:29:33;;;;;;;8.02;6.47;;;;;;;;;;4740050;30;20060;-80
2022/05/24 00:31:59;;;;;;;8.70;6.75;;;;;;;;;;4742739;30;20048;-81
2022/05/24 00:34:26;;;;;;;10.20;6.82;;;;;;;;;;4743017;30;20095;-87
2022/05/24 00:36:52;;;;;;;11.57;6.75;;;;;;;;;;4726288;30;20048;-86
2022/05/24 00:39:18;;;;;;;9.88;6.10;;;;;;;;;;4745916;30;20052;-82
2022/05/24 00:41:58;;;;;;;12.82;7.00;;;13.20;99.90;;;;;;4755314;30;20080;-91
2022/05/24 00:44:32;;;;;;;9.82;5.97;;;13.20;99.90;;;;;;4711985;30;20447;-88
2022/05/24 00:47:05;;;;;;;7.53;5.25;;;13.10;99.90;;;;;;4738510;30;20561;-83
2022/05/24 00:50:13;;;;;;;10.00;5.38;;;13.20;99.90;;;;;;4740657;30;20062;-91
2022/05/24 00:53:06;;;;;;;7.50;5.82;;;13.10;99.90;;;;;;4656134;30;20074;-85
2022/05/24 00:55:35;;;;;;;5.85;4.60;;;;;;;;;;4668906;30;20185;-87
2022/05/24 00:58:10;;;;;;;5.95;4.85;;;;;;;;;;4667924;30;20153;-83
2022/05/24 01:00:36;;;;;;;7.63;4.78;;;;;;;;;;4658474;30;20566;-84
2022/05/24 01:03:03;;;;;;;9.57;5.13;;;;;;;;;;4652170;30;20055;-87
2022/05/24 01:05:30;;;;;;;5.20;4.70;;;12.70;99.90;;;;;;4653351;30;20090;-82
2022/05/24 01:07:57;;;;;;;7.53;4.07;;;;;;;;;;4670054;30;20058;-88
2022/05/24 01:10:27;;;;;;;6.18;4.40;;;;;;;;;;4656016;30;20054;-89
2022/05/24 01:12:53;;;;;;;11.80;5.22;;;;;;;;;;4672767;30;20506;-88
2022/05/24 01:15:19;;;;;;;7.38;5.07;;;12.70;99.90;;;;;;4673415;30;20104;-88
2022/05/24 01:17:46;;;;;;;7.10;5.18;;;;;;;;;;4673369;30;20128;-89
2022/05/24 01:20:13;;;;;;;8.27;5.30;;;;;;;;;;4658935;30;20091;-86
2022/05/24 01:22:54;;;;;;;8.77;5.95;;;;;;;;;;4673764;30;20394;-84
2022/05/24 01:25:20;;;;;;;8.45;6.20;;;;;;;;;;4671147;30;20053;-83
2022/05/24 01:27:46;;;;;;;8.80;5.82;;;;;;;;;;4688347;30;20504;-80
2022/05/24 01:30:12;;;;;;;7.03;5.43;;;;;;;;;;4726672;30;20135;-82
2022/05/24 01:38:27;;;;;;;8.95;5.82;;;;;;;;;;4685946;30;20088;-82
2022/05/24 01:40:55;;;;;;;10.20;6.43;;;12.50;99.90;;;;;;4687853;30;20057;-81
2022/05/24 01:43:24;;;;;;;10.82;7.05;;;12.50;99.90;;;;;;4675225;30;20057;-80
2022/05/24 01:45:55;;;;;;;7.43;6.18;;;12.60;99.90;;;;;;4688317;30;20132;-86
2022/05/24 01:48:27;;;;;;;8.95;6.57;;;12.70;99.90;;;;;;4702177;30;20540;-90
2022/05/24 01:50:55;;;;;;;12.52;7.25;;;12.50;99.90;;;;;;4687492;30;20086;-84
2022/05/24 01:53:27;;;;;;;8.95;6.15;;;12.30;99.90;;;;;;4686721;30;20069;-87
2022/05/24 01:55:57;;;;;;;10.73;7.35;;;12.30;99.90;;;;;;4687091;30;20050;-86
2022/05/24 01:58:26;;;;;;;12.73;7.20;;;;;;;;;;4687394;30;20057;-86
2022/05/24 02:01:08;;;;;;;9.27;6.32;;;12.40;99.90;;;;;;4687878;30;20089;-84
2022/05/24 02:03:34;;;;;;;9.65;7.38;;;;;;;;;;4688654;30;20054;-85
2022/05/24 02:06:00;;;;;;;13.00;8.73;;;;;;;;;;4700297;30;20106;-86
2022/05/24 02:08:26;;;;;;;10.52;7.75;;;;;;;;;;4738551;30;20055;-83
2022/05/24 02:10:56;;;;;;;11.98;8.07;;;;;;;;;;4739277;30;20088;-84
2022/05/24 02:13:25;;;;;;;9.93;7.57;;;;;;;;;;4749744;30;20055;-82
2022/05/24 02:15:53;;;;;;;9.73;7.35;;;;;;;;;;4736264;30;20570;-82
2022/05/24 02:18:21;;;;;;;9.02;6.93;;;12.40;99.90;;;;;;4723041;30;20052;-83
2022/05/24 02:20:47;;;;;;;13.07;7.63;;;;;;;;;;4722417;30;20399;-82
2022/05/24 02:23:17;;;;;;;10.23;7.57;;;12.60;99.90;;;;;;4723304;30;20135;-83
2022/05/24 02:25:46;;;;;;;11.25;7.57;;;;;;;;;;4737073;30;20052;-81
2022/05/24 02:28:13;;;;;;;9.73;8.07;;;;;;;;;;4737166;30;20048;-82
2022/05/24 02:30:41;;;;;;;10.48;7.75;;;;;;;;;;4737334;30;20060;-84
2022/05/24 02:33:07;;;;;;;12.45;8.15;;;;;;;;;;4737048;30;20051;-82
2022/05/24 02:35:33;;;;;;;11.55;7.07;;;;;;;;;;4722817;30;20048;-82
2022/05/24 02:37:59;;;;;;;11.80;7.35;;;;;;;;;;4723797;30;20044;-82
2022/05/24 02:43:11;;;;;;;8.98;7.53;;;;;;;;;;4736975;30;20515;-81
2022/05/24 02:45:37;;;;;;;11.55;8.00;;;;;;;;;;4722765;30;20087;-82
2022/05/24 02:48:04;;;;;;;9.60;7.22;;;;;;;;;;4736387;30;20517;-81
2022/05/24 02:50:30;;;;;;;10.05;6.97;;;;;;;;;;4737130;30;20044;-82
2022/05/24 02:52:56;;;;;;;9.63;7.13;;;;;;;;;;4736602;30;20048;-82
2022/05/24 02:55:23;;;;;;;11.95;7.80;;;;;;;;;;4720076;30;20139;-82
2022/05/24 02:57:49;;;;;;;12.35;8.75;;;;;;;;;;4723892;30;20576;-83
2022/05/24 03:00:17;;;;;;;12.85;8.90;;;;;;;;;;4738747;30;20048;-88
2022/05/24 03:02:43;;;;;;;18.38;8.52;;;;;;;;;;4739609;30;20052;-90
2022/05/24 03:05:11;;;;;;;10.55;8.35;;;;;;;;;;4738828;30;20055;-89
2022/05/24 03:10:22;;;;;;;16.00;9.57;;;12.50;99.90;;;;;;4739144;30;20075;-88
2022/05/24 03:15:35;;;;;;;18.55;10.60;;;;;;;;;;4737940;30;20052;-85
2022/05/24 03:18:01;;;;;;;13.73;9.40;;;;;;;;;;4737634;30;20063;-84
2022/05/24 03:20:28;;;;;;;14.63;10.38;;;;;;;;;;4738343;30;20459;-89
2022/05/24 03:22:54;;;;;;;11.52;9.98;;;;;;;;;;4738215;30;20112;-88
2022/05/24 03:25:20;;;;;;;15.90;10.85;;;;;;;;;;4737173;30;20116;-87
2022/05/24 03:27:49;;;;;;;16.35;10.57;;;;;;;;;;4737248;30;20048;-87
2022/05/24 03:30:16;;;;;;;16.42;11.48;;;;;;;;;;4736545;30;20135;-86
2022/05/24 03:32:42;;;;;;;13.25;10.93;;;;;;;;;;4736230;30;20182;-83
2022/05/24 03:35:11;;;;;;;13.88;10.75;;;;;;;;;;4737696;30;20501;-84
2022/05/24 03:37:38;;;;;;;15.13;11.55;;;;;;;;;;4736665;30;20135;-85
2022/05/24 03:40:05;;;;;;;18.05;11.98;;;12.80;99.90;;;;;;4737341;30;20098;-88
2022/05/24 03:42:31;;;;;;;18.40;12.05;;;;;;;;;;4736032;30;20066;-85
2022/05/24 03:44:57;;;;;;;22.48;12.82;;;;;;;;;;4736582;30;20111;-86
2022/05/24 03:47:23;;;;;;;21.63;11.82;;;13.00;99.90;;;;;;4722381;30;20048;-86
2022/05/24 03:49:49;;;;;;;17.10;13.23;;;;;;;;;;4721498;30;20494;-81
2022/05/24 03:52:15;;;;;;;32.72;14.60;;;;;;;;;;4735312;30;20508;-83
2022/05/24 03:54:41;;;;;;;21.17;13.00;;;;;;;;;;4721238;30;20139;-83
2022/05/24 03:59:52;;;;;;;19.30;13.95;;;;;;;;;;4735831;30;20048;-81
2022/05/24 04:02:18;;;;;;;24.25;15.18;;;;;;;;;;4735969;30;20461;-82
2022/05/24 04:04:44;;;;;;;24.25;16.70;;;;;;;;;;4735385;30;20406;-81
2022/05/24 04:07:10;;;;;;;25.13;14.38;;;;;;;;;;4735287;30;20062;-83
2022/05/24 04:09:37;;;;;;;23.92;16.70;;;;;;;;;;4720771;30;20058;-82
2022/05/24 04:12:03;;;;;;;23.30;16.05;;;;;;;;;;4711571;30;20048;-81
2022/05/24 04:14:33;;;;;;;27.00;15.57;;;13.10;99.90;;;;;;4724816;30;20524;-82
2022/05/24 04:16:59;;;;;;;26.08;15.90;;;;;;;;;;4735239;30;20056;-81
2022/05/24 04:19:25;;;;;;;21.60;13.77;;;;;;;;;;4734878;30;20060;-81
2022/05/24 04:21:52;;;;;;;23.30;13.35;;;13.20;99.90;;;;;;4735416;30;20060;-81
2022/05/24 04:24:18;;;;;;;21.65;13.60;;;;;;;;;;4735222;30;20042;-82
2022/05/24 04:26:44;;;;;;;21.50;13.60;;;;;;;;;;4720405;30;20608;-83
2022/05/24 04:29:12;;;;;;;23.13;13.68;;;;;;;;;;4720825;30;20085;-81
2022/05/24 04:31:38;;;;;;;19.67;12.85;;;;;;;;;;4721315;30;20048;-81
2022/05/24 04:34:04;;;;;;;17.83;11.32;;;;;;;;;;4720868;30;20102;-81
2022/05/24 04:36:31;;;;;;;18.30;11.93;;;;;;;;;;4735801;30;20041;-81
2022/05/24 04:38:59;;;;;;;17.20;9.95;;;13.40;99.90;;;;;;4729299;30;20063;-85
2022/05/24 04:44:10;;;;;;;15.18;9.98;;;13.40;99.90;;;;;;4734697;30;20058;-82
2022/05/24 04:49:22;;;;;;;14.50;8.98;;;13.30;99.90;;;;;;4749761;30;20148;-82
2022/05/24 04:51:53;;;;;;;15.48;8.40;;;;;;;;;;4718419;30;20056;-81
2022/05/24 04:54:19;;;;;;;10.30;7.68;;;;;;;;;;4694379;30;20052;-80
2022/05/24 04:56:46;;;;;;;9.40;7.63;;;;;;;;;;4718342;30;20210;-83
2022/05/24 04:59:12;;;;;;;13.88;8.20;;;;;;;;;;4737308;30;20502;-85
2022/05/24 05:01:44;;;;;;;15.52;7.43;;;;;;;;;;4736398;30;20064;-91
2022/05/24 05:04:10;;;;;;;9.57;7.50;;;;;;;;;;4719886;30;20139;-89
2022/05/24 05:06:43;;;;;;;17.83;8.45;;;13.40;99.90;;;;;;4724135;30;20048;-90
2022/05/24 05:09:10;;;;;;;13.17;8.37;;;;;;;;;;4722612;30;20052;-89
2022/05/24 05:11:36;;;;;;;17.92;8.18;;;;;;;;;;4723369;30;20391;-88
2022/05/24 05:14:09;;;;;;;12.25;8.43;;;13.40;99.90;;;;;;4736935;30;20159;-90
2022/05/24 05:16:36;;;;;;;12.13;9.02;;;13.30;99.90;;;;;;4723373;30;20056;-89
2022/05/24 05:19:12;;;;;;;17.92;9.15;;;13.40;99.90;;;;;;4737245;30;20477;-88
2022/05/24 05:21:39;;;;;;;13.43;8.30;;;13.50;99.90;;;;;;4720982;30;20071;-85
2022/05/24 05:24:06;;;;;;;11.68;7.57;;;13.40;99.90;;;;;;4721044;30;20064;-87
2022/05/24 05:26:33;;;;;;;16.35;9.50;;;13.30;99.90;;;;;;4721190;30;20076;-86
2022/05/24 05:28:59;;;;;;;16.15;8.77;;;;;;;;;;4736931;30;20127;-89
2022/05/24 05:31:28;;;;;;;14.95;9.40;;;;;;;;;;4720964;30;20105;-83
2022/05/24 05:33:55;;;;;;;16.98;10.18;;;;;;;;;;4735001;30;20059;-84
2022/05/24 05:36:21;;;;;;;20.77;10.43;;;;;;;;;;4718329;30;20162;-84
2022/05/24 05:38:48;;;;;;;20.70;11.43;;;;;;;;;;4734869;30;20075;-84
2022/05/24 05:41:20;;;;;;;12.98;10.35;;;13.60;99.90;;;;;;4735137;30;20517;-84
2022/05/24 05:43:46;;;;;;;16.88;10.77;;;;;;;;;;4720458;30;20048;-84
2022/05/24 05:46:13;;;;;;;17.15;10.02;;;13.50;99.90;;;;;;4734313;30;20080;-84
2022/05/24 05:48:39;;;;;;;16.30;10.52;;;;;;;;;;4720936;30;20115;-84
2022/05/24 05:51:07;;;;;;;15.93;12.15;;;13.50;99.90;;;;;;4734111;30;20044;-84
2022/05/24 05:53:33;;;;;;;14.43;10.35;;;;;;;;;;4720183;30;20056;-83
2022/05/24 05:55:59;;;;;;;17.30;11.35;;;;;;;;;;4734818;30;20059;-84
2022/05/24 05:58:25;;;;;;;18.42;12.07;;;;;;;;;;4724042;30;20058;-83
2022/05/24 06:00:51;;;;;;;18.27;12.65;;;;;;;;;;4722838;30;20060;-83
2022/05/24 06:03:18;;;;;;;18.88;11.70;;;;;;;;;;4737128;30;20053;-83
2022/05/24 06:05:50;;;;;;;18.80;12.82;;;13.60;99.90;;;;;;4737195;30;20056;-82
2022/05/24 06:08:19;;;;;;;17.17;12.93;;;;;;;;;;4753635;30;20044;-83
2022/05/24 06:10:45;;;;;;;22.45;14.32;;;;;;;;;;4723046;30;20490;-83
2022/05/24 06:13:11;;;;;;;18.42;11.98;;;;;;;;;;4737096;30;20052;-84
2022/05/24 06:15:37;;;;;;;22.25;13.93;;;13.50;99.90;;;;;;4737420;30;20123;-83
2022/05/24 06:18:04;;;;;;;23.05;13.00;;;13.60;99.90;;;;;;4737729;30;20056;-80
2022/05/24 06:20:31;;;;;;;21.30;13.48;;;;;;;;;;4737588;30;20061;-81
2022/05/24 06:23:00;;;;;;;21.08;12.98;;;;;;;;;;4720886;30;20477;-80
2022/05/24 06:25:28;;;;;;;21.58;12.43;;;13.50;99.90;;;;;;4737841;30;20105;-80
2022/05/24 06:27:55;;;;;;;16.95;11.70;;;13.50;99.90;;;;;;4737127;30;20105;-80
2022/05/24 06:30:23;;;;;;;22.75;11.60;;;13.60;99.90;;;;;;4737383;30;20048;-80
2022/05/24 06:32:51;;;;;;;14.85;9.27;;;13.60;99.90;;;;;;4737329;30;20056;-80
2022/05/24 06:35:20;;;;;;;16.25;9.65;;;;;;;;;;4722415;30;20045;-80
2022/05/24 06:37:48;;;;;;;13.32;9.98;;;;;;;;;;4736623;30;20131;-80
2022/05/24 06:40:19;;;;;;;15.23;9.65;;;13.60;99.90;;;;;;4753284;30;20059;-82
2022/05/24 06:42:45;;;;;;;16.52;9.65;;;;;;;;;;4722586;30;20052;-83
2022/05/24 06:45:11;;;;;;;15.25;9.43;;;;;;;;;;4723795;30;20414;-83
2022/05/24 06:47:38;;;;;;;18.25;8.57;;;;;;;;;;4737020;30;20051;-82
2022/05/24 06:50:04;;;;;;;14.43;7.93;;;;;;;;;;4737127;30;20062;-83
2022/05/24 06:52:30;;;;;;;12.63;7.90;;;;;;;;;;4736768;30;20049;-83
2022/05/24 06:54:56;;;;;;;15.23;7.75;;;;;;;;;;4736302;30;20059;-83
2022/05/24 06:57:22;;;;;;;12.95;7.07;;;;;;;;;;4736904;30;20131;-83
2022/05/24 07:02:34;;;;;;;10.23;6.97;;;13.90;99.90;;;;;;4736913;30;20139;-83
2022/05/24 07:05:09;;;;;;;12.95;7.03;;;;;;;;;;4736511;30;20406;-83
2022/05/24 07:07:36;;;;;;;12.63;6.78;;;13.90;99.90;;;;;;4735534;30;20498;-83
2022/05/24 07:10:05;;;;;;;14.02;7.20;;;14.00;99.90;;;;;;4736576;30;20044;-83
2022/05/24 07:12:31;;;;;;;11.02;6.47;;;;;;;;;;4736951;30;20063;-83
2022/05/24 07:14:58;;;;;;;9.48;5.60;;;13.90;99.90;;;;;;4736427;30;20095;-84
2022/05/24 07:17:24;;;;;;;12.07;5.95;;;;;;;;;;4735746;30;20131;-83
2022/05/24 07:19:50;;;;;;;13.18;5.65;;;14.00;99.90;;;;;;4736170;30;20095;-84
2022/05/24 07:22:17;;;;;;;9.50;5.68;;;;;;;;;;4736436;30;20130;-83
2022/05/24 07:24:45;;;;;;;9.82;5.35;;;;;;;;;;4735634;30;20063;-83
2022/05/24 07:27:13;;;;;;;6.85;4.80;;;14.00;99.90;;;;;;4734977;30;20059;-83
2022/05/24 07:29:39;;;;;;;8.02;4.72;;;;;;;;;;4721297;30;20087;-83
2022/05/24 07:32:05;;;;;;;7.97;4.50;;;;;;;;;;4735777;30;20052;-83
2022/05/24 07:34:32;;;;;;;12.77;5.10;;;14.00;99.90;;;;;;4736002;30;20486;-83
2022/05/24 07:37:00;;;;;;;8.43;5.20;;;14.10;99.90;;;;;;4734969;30;20067;-81
2022/05/24 07:39:26;;;;;;;10.50;4.90;;;;;;;;;;4735529;30;20129;-81
2022/05/24 07:45:48;;;;;;;6.82;4.95;;;;;;;;;;4735800;30;20087;-81
2022/05/24 07:47:36;;;;;;;9.40;4.85;;;;;;;;;;4734935;30;20071;-83
2022/05/24 07:50:04;;;;;;;15.85;5.55;;;;;;;;;;4735607;30;20055;-81
2022/05/24 07:52:30;;;;;;;7.15;5.15;;;;;;;;;;4734000;30;20101;-80
2022/05/24 07:54:56;;;;;;;8.55;5.50;;;;;;;;;;4735078;30;20451;-81
2022/05/24 07:57:21;;;;;;;6.68;5.00;;;14.10;99.90;;;;;;4748955;30;20559;-81
2022/05/24 07:59:48;;;;;;;6.80;5.05;;;;;;;;;;4734597;30;20044;-81
2022/05/24 08:02:16;;;;;;;9.20;5.30;;;;;;;;;;4720594;30;20453;-81
2022/05/24 08:04:43;;;;;;;7.22;5.85;;;;;;;;;;4750941;30;20092;-81
2022/05/24 08:07:09;;;;;;;8.35;5.20;;;;;;;;;;4735473;30;20056;-85
2022/05/24 08:09:35;;;;;;;9.00;4.60;;;;;;;;;;4734577;30;20040;-81
2022/05/24 08:12:01;;;;;;;14.07;4.65;;;;;;;;;;4735207;30;20533;-81
2022/05/24 08:14:28;;;;;;;7.50;5.15;;;;;;;;;;4734885;30;20124;-81
2022/05/24 08:16:55;;;;;;;8.63;5.03;;;;;;;;;;4735040;30;20509;-81
2022/05/24 08:19:21;;;;;;;11.55;5.72;;;;;;;;;;4716958;30;20530;-81
2022/05/24 08:21:47;;;;;;;8.25;5.40;;;;;;;;;;4716921;30;20147;-81
2022/05/24 08:24:13;;;;;;;10.25;5.55;;;;;;;;;;4728350;30;20052;-85
2022/05/24 08:26:39;;;;;;;9.35;6.18;;;;;;;;;;4714548;30;20144;-86
2022/05/24 08:29:10;;;;;;;10.85;5.45;;;;;;;;;;4727820;30;20076;-84
2022/05/24 08:31:36;;;;;;;13.00;5.18;;;;;;;;;;4732033;30;20536;-84
2022/05/24 08:34:02;;;;;;;8.25;5.32;;;;;;;;;;4721907;30;20049;-86
2022/05/24 08:36:28;;;;;;;11.23;5.72;;;;;;;;;;4743768;30;20049;-85
2022/05/24 08:38:54;;;;;;;7.28;5.47;;;;;;;;;;4743775;30;20103;-85
2022/05/24 08:41:26;;;;;;;9.23;6.00;;;;;;;;;;4728665;30;20056;-81
2022/05/24 08:49:59;;;;;;;12.32;7.63;;;;;;;;;;4732095;30;20067;-83
2022/05/24 08:52:33;;;;;;;10.65;6.80;;;14.50;99.90;;;;;;4732073;30;20411;-82
2022/05/24 08:54:59;;;;;;;12.18;6.43;;;;;;;;;;4714873;30;20063;-82
2022/05/24 08:57:48;;;;;;;10.23;6.30;;;14.70;99.90;;;;;;4716847;30;20441;-81
2022/05/24 09:00:19;;;;;;;9.00;4.20;;;;;;;;;;4733779;30;20079;-81
2022/05/24 09:02:47;;;;;;;7.65;2.95;;;14.10;99.90;;;;;;4732392;30;20053;-80
2022/05/24 09:05:25;;;;;;;3.75;2.30;;;;;;;;;;4717127;30;20052;-80
2022/05/24 09:08:03;;;;;;;3.78;2.10;;;13.60;99.90;;;;;;4732283;30;20118;-81
2022/05/24 09:10:40;;;;;;;5.57;2.08;;;;;;;;;;4732167;30;20056;-81
2022/05/24 09:13:35;;;;;;;3.58;1.95;;;13.30;99.90;;;;;;4732009;30;20059;-82
2022/05/24 09:16:14;;;;;;;3.08;1.70;;;13.40;99.90;;;;;;4731606;30;20426;-81
2022/05/24 09:19:11;;;;;;;1.83;1.40;;;13.40;99.90;;;;;;4717464;30;20136;-82
2022/05/24 09:21:42;;;;;;;6.20;2.30;;;;;;;;;;4720471;30;20059;-82
2022/05/24 09:24:11;;;;;;;2.75;1.70;;;;;;;;;;4719714;30;20575;-82
2022/05/24 09:27:06;;;;;;;1.42;1.33;;;13.30;99.90;;;;;;4716106;30;20049;-81
2022/05/24 09:29:50;;;;;;;3.50;1.80;;;13.40;99.90;;;;;;4717511;30;20139;-81
2022/05/24 09:32:16;;;;;;;3.30;1.98;;;;;;;;;;4705642;30;20088;-83
2022/05/24 09:34:42;;;;;;;3.65;2.10;;;;;;;;;;4720888;30;20053;-82
2022/05/24 09:37:27;;;;;;;2.72;2.50;;;13.40;99.90;;;;;;4722453;30;20409;-82
2022/05/24 09:40:03;;;;;;;4.70;2.15;;;13.50;99.90;;;;;;4738080;30;20053;-81
2022/05/24 09:42:33;;;;;;;5.43;2.40;;;13.50;99.90;;;;;;4738043;30;20060;-81
2022/05/24 09:45:17;;;;;;;3.63;2.80;;;;;;;;;;4738119;30;20052;-82
2022/05/24 09:47:43;;;;;;;4.80;2.97;;;;;;;;;;4737016;30;20087;-82
2022/05/24 09:50:16;;;;;;;5.78;3.28;;;;;;;;;;4723445;30;20056;-86
2022/05/24 09:52:46;;;;;;;2.75;2.55;;;;;;;;;;4723406;30;20056;-81
2022/05/24 09:55:22;;;;;;;3.10;2.80;;;;;;;;;;4737266;30;20120;-81
2022/05/24 09:57:48;;;;;;;2.53;2.33;;;;;;;;;;4737885;30;20090;-81
2022/05/24 10:00:20;;;;;;;4.20;2.75;;;;;;;;;;4737756;30;20052;-82
2022/05/24 10:02:49;;;;;;;5.25;3.28;;;;;;;;;;4738075;30;20051;-82
2022/05/24 10:05:23;;;;;;;4.18;3.13;;;14.20;99.90;;;;;;4737458;30;20059;-82
2022/05/24 10:08:07;;;;;;;4.10;3.42;;;14.10;99.90;;;;;;4737594;30;20063;-81
2022/05/24 10:10:37;;;;;;;3.17;2.88;;;14.10;99.90;;;;;;4723406;30;20056;-82
2022/05/24 10:13:29;;;;;;;6.07;2.83;;;14.40;99.90;;;;;;4737473;30;20067;-83
2022/05/24 10:16:07;;;;;;;6.15;2.88;;;;;;;;;;4707876;30;20134;-82
2022/05/24 10:19:14;;;;;;;4.03;3.15;;;14.30;99.90;;;;;;4737705;30;20058;-81
2022/05/24 10:21:44;;;;;;;6.03;3.05;;;;;;;;;;4751848;30;20119;-82
2022/05/24 10:24:19;;;;;;;6.78;2.97;;;;;;;;;;4736798;30;20067;-85
2022/05/24 10:27:04;;;;;;;4.57;3.13;;;14.30;99.90;;;;;;4722163;30;20139;-83
2022/05/24 10:29:56;;;;;;;8.05;3.10;;;14.30;99.90;;;;;;4713613;30;20084;-81
2022/05/24 10:39:05;;;;;;;3.20;2.70;;;;;;;;;;4736246;30;20059;-82
2022/05/24 10:41:57;;;;;;;3.75;2.65;;;14.30;99.90;;;;;;4736983;30;20146;-82
2022/05/24 10:44:35;;;;;;;3.25;2.30;;;14.50;99.90;;;;;;4684028;30;20099;-82
2022/05/24 10:47:28;;;;;;;5.05;2.53;;;14.60;99.90;;;;;;4684165;30;20563;-82
2022/05/24 10:50:01;;;;;;;4.00;2.25;;;14.60;99.90;;;;;;4697673;30;20159;-82
2022/05/24 10:52:49;;;;;;;2.78;2.33;;;14.70;99.90;;;;;;4669944;30;20423;-81
2022/05/24 10:55:18;;;;;;;4.53;2.75;;;;;;;;;;4684160;30;20077;-82
2022/05/24 10:58:03;;;;;;;4.50;2.78;;;14.40;99.90;;;;;;4683889;30;20050;-82
2022/05/24 11:00:34;;;;;;;3.63;2.70;;;;;;;;;;4678665;30;20140;-82
2022/05/24 11:03:15;;;;;;;5.97;3.13;;;14.50;99.90;;;;;;4695357;30;20058;-82
2022/05/24 11:05:45;;;;;;;4.20;3.20;;;14.60;99.90;;;;;;4694345;30;20524;-82
2022/05/24 11:08:11;;;;;;;3.75;2.63;;;;;;;;;;4666684;30;20480;-82
2022/05/24 11:10:41;;;;;;;8.50;3.25;;;14.60;99.90;;;;;;4683172;30;20058;-83
2022/05/24 11:13:12;;;;;;;5.93;3.30;;;14.40;99.90;;;;;;4683455;30;20045;-82
2022/05/24 11:15:43;;;;;;;15.35;4.85;;;;;;;;;;4683403;30;20250;-78
2022/05/24 11:18:22;;;;;;;4.53;3.50;;;14.00;99.90;;;;;;4683738;30;20065;-82
2022/05/24 11:20:57;;;;;;;4.45;3.53;;;;;;;;;;4691766;30;20079;-80
2022/05/24 11:23:45;;;;;;;3.70;2.50;;;;;;;;;;4704556;30;20049;-82
2022/05/24 11:26:24;;;;;;;1.60;1.50;;;13.50;99.90;;;;;;4733825;30;20057;-82
2022/05/24 11:29:16;;;;;;;2.10;1.50;;;13.50;99.90;;;;;;4719148;30;20052;-82
2022/05/24 11:31:47;;;;;;;1.80;1.48;;;13.70;99.90;;;;;;4719510;30;20536;-84
2022/05/24 11:34:17;;;;;;;1.80;1.70;;;;;;;;;;4736099;30;20410;-83
2022/05/24 11:36:48;;;;;;;3.22;1.83;;;13.80;99.90;;;;;;4736357;30;20052;-84
2022/05/24 11:39:37;;;;;;;1.52;1.40;;;;;;;;;;4721681;30;20051;-83
2022/05/24 11:42:22;;;;;;;3.40;1.70;;;;;;;;;;4681061;30;20065;-84
2022/05/24 11:44:49;;;;;;;2.40;1.75;;;14.00;99.90;;;;;;4682493;30;20042;-83
2022/05/24 11:47:39;;;;;;;3.53;1.80;;;14.20;99.90;;;;;;4682693;30;20069;-83
2022/05/24 11:50:09;;;;;;;4.55;1.83;;;;;;;;;;4669070;30;20061;-83
2022/05/24 11:52:45;;;;;;;2.03;1.55;;;;;;;;;;4694786;30;20096;-82
2022/05/24 11:55:49;;;;;;;2.78;1.98;;;14.10;99.90;;;;;;4668190;30;20049;-81
2022/05/24 11:58:21;;;;;;;4.10;1.50;;;;;;;;;;4668864;30;20050;-82
2022/05/24 12:00:58;;;;;;;9.23;2.30;;;;;;;;;;4682730;30;20116;-83
2022/05/24 12:09:11;;;;;;;3.00;2.40;;;14.30;99.90;;;;;;4682650;30;20060;-82
2022/05/24 12:11:37;;;;;;;4.20;2.60;;;;;;;;;;4667555;30;20069;-82
2022/05/24 12:14:19;;;;;;;6.85;3.20;;;;;;;;;;4681695;30;20054;-82
2022/05/24 12:17:12;;;;;;;3.33;1.83;;;14.40;99.90;;;;;;4668443;30;20057;-84
2022/05/24 12:19:40;;;;;;;12.23;2.77;;;;;;;;;;4694686;30;20065;-81
2022/05/24 12:22:10;;;;;;;3.42;1.88;;;;;;;;;;4732849;30;20431;-82
2022/05/24 12:24:37;;;;;;;3.10;1.70;;;;;;;;;;4716775;30;20110;-82
2022/05/24 12:27:24;;;;;;;4.82;1.90;;;14.30;99.90;;;;;;4718313;30;20052;-82
2022/05/24 12:29:55;;;;;;;4.50;2.38;;;14.50;99.90;;;;;;4703898;30;20052;-81
2022/05/24 12:32:25;;;;;;;3.65;1.70;;;14.40;99.90;;;;;;4703692;30;20091;-83
2022/05/24 12:34:51;;;;;;;9.77;1.83;;;;;;;;;;4717533;30;20058;-82
2022/05/24 12:37:23;;;;;;;1.63;1.42;;;;;;;;;;4735126;30;20502;-83
2022/05/24 12:40:11;;;;;;;1.67;1.27;;;14.70;99.90;;;;;;4735589;30;20048;-82
2022/05/24 12:42:47;;;;;;;6.70;1.75;;;14.80;99.90;;;;;;4732430;30;20055;-83
2022/05/24 12:45:16;;;;;;;3.13;1.80;;;14.80;99.90;;;;;;4717692;30;20048;-83
2022/05/24 12:47:42;;;;;;;3.53;1.85;;;;;;;;;;4703264;30;20435;-82
2022/05/24 12:50:22;;;;;;;4.07;1.70;;;;;;;;;;4732538;30;20048;-84
2022/05/24 12:52:48;;;;;;;2.15;1.67;;;;;;;;;;4719120;30;20060;-82
2022/05/24 12:55:54;;;;;;;4.95;1.50;;;14.80;99.90;;;;;;4735326;30;20048;-82
2022/05/24 12:58:41;;;;;;;6.13;1.65;;;15.00;99.90;;;;;;4735059;30;20140;-82
2022/05/24 13:01:07;;;;;;;1.75;0.93;;;;;;;;;;4735248;30;20056;-83
2022/05/24 13:03:33;;;;;;;3.35;1.60;;;;;;;;;;4734089;30;20110;-83
2022/05/24 13:05:59;;;;;;;2.58;1.27;;;;;;;;;;4735796;30;20083;-83
2022/05/24 13:08:25;;;;;;;2.35;1.10;;;;;;;;;;4753670;30;20072;-83
2022/05/24 13:10:53;;;;;;;5.53;1.05;;;;;;;;;;4737983;30;20048;-83
2022/05/24 13:13:22;;;;;;;1.10;1.00;;;15.50;99.90;;;;;;4735202;30;20309;-83
2022/05/24 13:15:49;;;;;;;1.23;1.10;;;;;;;;;;4738025;30;20190;-84
2022/05/24 13:18:20;;;;;;;7.50;1.38;;;;;;;;;;4738444;30;20063;-84
2022/05/24 13:20:46;;;;;;;0.70;0.70;;;;;;;;;;4737488;30;20056;-83
2022/05/24 13:23:16;;;;;;;3.30;1.40;;;;;;;;;;4735173;30;20067;-83
2022/05/24 13:25:58;;;;;;;1.58;0.90;;;15.90;99.90;;;;;;4738197;30;20063;-84
2022/05/24 13:28:38;;;;;;;1.08;0.88;;;;;;;;;;4737836;30;20192;-84
2022/05/24 13:34:12;;;;;;;1.42;1.33;;;;;;;;;;4736674;30;20048;-84
2022/05/24 13:36:43;;;;;;;2.67;1.50;;;;;;;;;;4716987;30;20048;-84
2022/05/24 13:39:39;;;;;;;2.28;1.88;;;15.60;99.90;;;;;;4737598;30;20132;-83
2022/05/24 13:42:07;;;;;;;3.05;1.90;;;;;;;;;;4736714;30;20048;-84
2022/05/24 13:44:35;;;;;;;1.92;1.73;;;;;;;;;;4737657;30;20660;-84
2022/05/24 13:47:03;;;;;;;3.17;1.65;;;;;;;;;;4733367;30;20056;-83
2022/05/24 13:49:29;;;;;;;3.00;1.67;;;;;;;;;;4737808;30;20143;-83
2022/05/24 13:52:13;;;;;;;3.58;2.08;;;;;;;;;;4737496;30;20463;-83
2022/05/24 13:54:39;;;;;;;8.80;2.10;;;;;;;;;;4737572;30;20052;-83
2022/05/24 13:57:07;;;;;;;1.90;1.70;;;;;;;;;;4734635;30;20144;-83
2022/05/24 13:59:33;;;;;;;2.17;1.85;;;;;;;;;;4723054;30;20380;-83
2022/05/24 14:02:14;;;;;;;5.60;2.97;;;16.10;99.90;;;;;;4737633;30;20098;-83
2022/05/24 14:04:41;;;;;;;3.20;1.73;;;16.50;99.90;;;;;;4738212;30;20056;-83
2022/05/24 14:07:10;;;;;;;3.88;2.30;;;;;;;;;;4736890;30;20083;-83
2022/05/24 14:09:36;;;;;;;3.63;1.63;;;;;;;;;;4720277;30;20057;-83
2022/05/24 14:12:05;;;;;;;5.75;2.08;;;16.30;99.90;;;;;;4720249;30;20060;-84
2022/05/24 14:14:37;;;;;;;4.20;2.10;;;;;;;;;;4720092;30;20053;-83
2022/05/24 14:17:06;;;;;;;9.15;2.45;;;;;;;;;;4734629;30;20044;-83
2022/05/24 14:19:33;;;;;;;4.65;2.72;;;;;;;;;;4734306;30;20114;-83
2022/05/24 14:21:59;;;;;;;5.38;2.45;;;;;;;;;;4736636;30;20156;-83
2022/05/24 14:24:27;;;;;;;3.03;1.58;;;16.00;99.90;;;;;;4723091;30;20410;-84
2022/05/24 14:26:56;;;;;;;3.58;2.28;;;15.90;99.90;;;;;;4737433;30;20052;-84
2022/05/24 14:29:27;;;;;;;2.10;2.00;;;15.90;99.90;;;;;;4722513;30;20056;-83
2022/05/24 14:31:53;;;;;;;4.25;2.50;;;;;;;;;;4723144;30;20410;-83
2022/05/24 14:34:36;;;;;;;3.45;2.80;;;;;;;;;;5130530;27;20393;-84
2022/05/24 14:37:03;;;;;;;3.92;2.72;;;;;;;;;;5094764;28;20047;-84
2022/05/24 14:39:30;;;;;;;3.45;2.47;;;16.30;99.90;;;;;;5093364;28;20050;-84
2022/05/24 14:41:57;;;;;;;8.18;3.00;;;;;;;;;;5074750;28;20122;-85
2022/05/24 14:44:35;;;;;;;6.80;2.60;;;16.30;99.90;;;;;;5091437;28;20059;-84
2022/05/24 14:47:02;;;;;;;3.08;2.45;;;;;;;;;;5074083;28;20061;-84
2022/05/24 14:49:28;;;;;;;3.50;2.33;;;;;;;;;;5075889;28;20046;-84
2022/05/24 14:52:01;;;;;;;2.35;1.90;;;16.60;99.90;;;;;;5104162;28;20547;-85
2022/05/24 14:54:28;;;;;;;5.00;2.38;;;;;;;;;;5091597;28;20399;-86
2022/05/24 14:56:55;;;;;;;3.38;2.38;;;;;;;;;;5074016;28;20047;-88
2022/05/24 14:59:25;;;;;;;3.88;2.75;;;;;;;;;;5055403;28;20126;-88
2022/05/24 15:01:51;;;;;;;2.10;1.90;;;;;;;;;;5054202;28;20036;-87
2022/05/24 15:04:17;;;;;;;2.20;2.00;;;;;;;;;;5069923;28;20041;-86